Terminal Aerodrome Forecast
Issued by NWS Newport/Morehead City, NC

Home | Current Version | Previous Version | Text Only | Print | Product List | Glossary On
Versions: 1 2 3 4 5 6 7 8 9 10 11 12 13 14
000
FTUS42 KMHX 200800 AAB
TAFEWN
TAF AMD
KEWN 200800Z 2008/2106 00000KT 4SM BR BKN002
     FM201200 19005KT P6SM SCT040
     FM210200 18003KT P6SM VCSH SCT025 BKN040=

USA.gov is the U.S. government's official web portal to all federal, state and local government web resources and services.